Sierra Nevada Aquatic Research Lab (SNARL) Reserve, Santa Monica Mtns, California Weather observations

Data are for 10 minute period ending at time listed.
 Day   Time   Solar   Ave.   Ave.  Ave.  Vector  Max.   Baro.   Total    
  of    of     Rad.   Air    Rel.  Wind   Wind   Wind  Press.  Precip.   
Year   Day            Temp.  Hum.  Speed  Dir.   Gust                    
2014   (PST)  Kw/m2    F      %     mph   deg.    mph    mb.     in.     
-------------------------------------------------------------------------
 296   10:30   0.61   59.7    22    3.2    87     9.5   787.0    0.00 
 296   10:40   0.57   60.1    22    4.9    74    11.1   787.1    0.00 
 296   10:50   0.71   61.2    22    5.8    82    10.6   787.1    0.00 
 296   11:00   0.70   62.0    21    6.2    68    11.9   787.0    0.00 
 296   11:10   0.70   61.7    22    6.0    78    11.7   787.0    0.00 
 296   11:20   0.71   63.1    20    7.8    85    13.4   786.9    0.00 
 296   11:30   0.71   63.7    20    4.8    67    10.6   786.9    0.00 
 296   11:40   0.72   65.1    20    5.7    87     9.6   786.8    0.00 
 296   11:50   0.72   65.3    19    5.8    62    11.2   786.7    0.00 
 296   12:00   0.72   66.2    18    7.7    64    17.3   786.4    0.00 
 296   12:10   0.70   67.9    17    6.8    92    11.0   786.3    0.00 
 296   12:20   0.71   68.4    17    7.2    92    12.1   786.3    0.00 
 296   12:30   0.71   70.1    13   11.8   150    26.7   786.0    0.00 
 296   12:40   0.70   70.6    14    7.6   215    17.6   785.8    0.00 
 296   12:50   0.69   72.4    12    6.9   203    19.1   785.8    0.00 
 296   13:00   0.67   71.1    13    7.7    67    18.9   785.7    0.00 
 296   13:10   0.66   72.0    11   14.4   211    31.5   785.6    0.00 
 296   13:20   0.62   71.7    11   12.4   242    23.8   785.5    0.00 
 296   13:30   0.56   71.3    11   16.5   198    32.9   785.5    0.00 
 296   13:40   0.50   70.6    11   14.2   227    35.8   785.4    0.00 
 296   13:50   0.45   70.6    11   19.3   216    44.7   785.4    0.00 
 296   14:00   0.39   70.5    11   13.0   206    25.0   785.4    0.00 
 296   14:10   0.37   69.6    11   14.6   224    31.2   785.4    0.00 
 296   14:20   0.33   69.3    12   12.5   227    25.1   785.4    0.00 
 296   14:30   0.30   69.0    12   14.9   223    28.9   785.5    0.00 
 296   14:40   0.29   68.4    12   16.8   230    41.0   785.5    0.00 
 296   14:50   0.32   68.5    12   16.9   220    41.3   785.5    0.00 
 296   15:00   0.32   68.4    12   14.4   202    31.4   785.6    0.00 
 296   15:10   0.34   68.4    12   13.3   237    30.2   785.6    0.00 
 296   15:20   0.34   68.6    12   14.3   236    28.7   785.6    0.00 
 296   15:30   0.33   68.1    11   19.3   226    31.8   785.6    0.00 
 296   15:40   0.31   67.7    11   16.8   226    27.2   785.6    0.00 
 296   15:50   0.27   67.8    11   12.4   232    38.6   785.6    0.00 
 296   16:00   0.22   67.5    11   12.6   226    35.2   785.7    0.00 
 296   16:10   0.10   66.2    12   15.2   238    29.6   785.6    0.00 
 296   16:20   0.03   64.8    12   11.0   226    19.1   785.7    0.00 
 296   16:30   0.03   64.2    12    5.8   244    12.3   785.6    0.00 
 296   16:40   0.03   63.1    13    7.6   240    18.2   785.6    0.00 
 296   16:50   0.03   62.9    13    4.7   246    12.9   785.5    0.00 
 296   17:00   0.01   61.9    14    5.7   243    12.8   785.6    0.00 
 296   17:10   0.01   62.8    13    8.7   238    20.0   785.5    0.00 
 296   17:20   0.01   62.0    16    3.4    25     6.1   785.6    0.00 
 296   17:30   0.00   59.6    20    7.8    96    14.4   785.6    0.00 
 296   17:40   0.00   59.0    21    5.3    79    10.4   785.6    0.00 
 296   17:50   0.00   57.4    23    5.8   100    12.1   785.5    0.00 
 296   18:00   0.00   55.7    23    1.9   117     7.9   785.5    0.00 
 296   18:10   0.00   52.6    25    2.8   200     8.1   785.6    0.00 
 296   18:20   0.00   49.2    27    2.7   166     5.3   785.7    0.00 
 296   18:30   0.00   47.4    29    3.8   141    11.8   785.7    0.00 
 296   18:40   0.00   49.3    29    3.9   130     7.2   785.8    0.00 
 296   18:50   0.00   49.2    29    3.3   115     8.3   785.8    0.00 
 296   19:00   0.00   48.5    30    5.3   140    10.2   786.0    0.00 
 296   19:10   0.00   48.2    30    2.8   152     9.9   786.1    0.00 
 296   19:20   0.00   46.5    32    2.0    29     4.2   786.1    0.00 
 296   19:30   0.00   45.0    33    1.7   218     5.3   786.1    0.00 
 296   19:40   0.00   44.6    34    3.2   185     6.9   786.2    0.00 
 296   19:50   0.00   45.9    33    3.2    37     6.9   786.2    0.00 
 296   20:00   0.00   48.4    31    4.0     3     8.5   786.3    0.00 
 296   20:10   0.00   48.2    31    3.6   326     6.5   786.4    0.00 
 296   20:20   0.00   45.3    34    3.9   275     6.5   786.5    0.00 
 296   20:30   0.00   43.2    35    2.7   342     5.3   786.5    0.00 
 296   20:40   0.00   41.1    37    2.7   250     4.8   786.7    0.00 
 296   20:50   0.00   40.2    38    1.1   192     3.1   786.7    0.00 
 296   21:00   0.00   39.0    39    3.4   259     6.2   786.8    0.00 
 296   21:10   0.00   38.8    39    2.2   249     5.5   786.8    0.00 
 296   21:20   0.00   37.6    42    2.2   294     4.3   786.9    0.00 
 296   21:30   0.00   37.6    42    2.9   269     5.0   787.0    0.00 
 296   21:40   0.00   35.8    42    2.7   219     6.1   787.0    0.00 
 296   21:50   0.00   35.8    44    3.0   216     5.1   787.0    0.00 
 296   22:00   0.00   36.0    44    2.7   243     4.7   787.1    0.00 
 296   22:10   0.00   36.2    45    4.1   288     7.1   787.1    0.00 
 296   22:20   0.00   37.2    43    3.2   274     9.1   787.1    0.00 
 296   22:30   0.00   35.7    45    3.3   247     6.2   787.2    0.00 
 296   22:40   0.00   35.7    45    3.2   256     8.3   787.2    0.00 
 296   22:50   0.00   36.9    44    4.1   226    12.3   787.2    0.00 
 296   23:00   0.00   38.3    43    2.9   282     8.4   787.1    0.00 
 296   23:10   0.00   38.4    43    4.3   159     9.8   787.1    0.00 
 296   23:20   0.00   37.9    44    3.4   313     8.0   787.2    0.00 
 296   23:30   0.00   36.8    44    3.8   234     8.5   787.3    0.00 
 296   23:40   0.00   35.6    45    1.8   238     4.5   787.3    0.00 
 296   23:50   0.00   35.4    47    1.9   358     4.9   787.3    0.00 
 297    0:00   0.00   34.3    48    2.3   217     5.1   787.4    0.00 
 297    0:10   0.00   35.4    46    3.7   330     7.3   787.3    0.00 
 297    0:20   0.00   35.1    46    3.6   195     9.0   787.3    0.00 
 297    0:30   0.00   35.3    46    2.1   321     5.5   787.3    0.00 
 297    0:40   0.00   34.1    47    2.5   105     5.6   787.3    0.00 
 297    0:50   0.00   33.9    47    1.8   215     4.3   787.2    0.00 
 297    1:00   0.00   34.2    47    2.4    31     3.9   787.2    0.00 
 297    1:10   0.00   34.4    47    2.5   107     4.5   787.2    0.00 
 297    1:20   0.00   35.0    46    3.1   110     5.3   787.2    0.00 
 297    1:30   0.00   34.0    48    3.3   100     8.6   787.2    0.00 
 297    1:40   0.00   34.2    50    2.6   338     5.3   787.1    0.00 
 297    1:50   0.00   33.8    50    2.2    64     5.9   787.2    0.00 
 297    2:00   0.00   34.2    51    3.0    44     5.8   787.1    0.00 
 297    2:10   0.00   33.5    50    3.3   204     9.2   787.1    0.00 
 297    2:20   0.00   35.5    49    3.5    64     5.6   787.0    0.00 
 297    2:30   0.00   35.3    49    2.8    14     6.9   786.9    0.00 
 297    2:40   0.00   35.0    50    2.3    56     8.5   786.8    0.00 
 297    2:50   0.00   34.3    52    3.4   172     9.9   786.8    0.00 
 297    3:00   0.00   34.2    52    2.8   110     5.5   786.7    0.00 
 297    3:10   0.00   35.0    51    3.0    30     6.3   786.8    0.00 
 297    3:20   0.00   33.8    52    4.1   122    10.6   786.7    0.00 
 297    3:30   0.00   35.0    50    1.5   216     8.8   786.8    0.00 
 297    3:40   0.00   35.5    49    3.6    77     8.0   786.8    0.00 
 297    3:50   0.00   33.6    51    2.2    56     5.0   786.9    0.00 
 297    4:00   0.00   33.5    51    3.0   224     9.2   786.8    0.00 
 297    4:10   0.00   35.8    47    4.1   307     8.0   786.9    0.00 
 297    4:20   0.00   36.8    44    2.5   314     5.3   787.0    0.00 
 297    4:30   0.00   37.3    43    3.2   241     7.5   786.9    0.00 
 297    4:40   0.00   36.8    44    2.0   274     5.9   787.0    0.00 
 297    4:50   0.00   37.1    43    2.5   316     8.5   787.0    0.00 
 297    5:00   0.00   35.5    44    3.3    74     8.6   787.0    0.00 
 297    5:10   0.00   34.2    48    2.7   296     8.0   787.0    0.00 
 297    5:20   0.00   32.8    50    1.2    33     2.6   787.0    0.00 
 297    5:30   0.00   30.9    52    1.3    99     5.6   787.0    0.00 
 297    5:40   0.00   30.9    56    3.5    91     8.7   787.0    0.00 
 297    5:50   0.00   30.9    54    2.1   254     6.6   787.1    0.00 
 297    6:00   0.00   32.2    51    4.4     8     9.9   787.0    0.00 
 297    6:10   0.00   33.4    49    2.4   148     7.9   787.0    0.00 
 297    6:20   0.00   34.0    48    2.4   350     6.7   787.1    0.00 
 297    6:30   0.00   33.2    49    2.8   298     6.0   787.1    0.00 
 297    6:40   0.04   34.2    46    1.9   249     3.7   787.2    0.00 
 297    6:50   0.07   36.1    45    3.4    94     7.5   787.2    0.00 
 297    7:00   0.10   38.4    42    1.9   208     4.7   787.3    0.00 
 297    7:10   0.14   42.0    39    2.8    87     7.7   787.3    0.00 
 297    7:20   0.17   43.5    37    4.1    82     9.3   787.4    0.00 
 297    7:30   0.20   45.8    35    3.1   313     5.9   787.5    0.00 
 297    7:40   0.23   47.2    38    3.8    44     6.9   787.5    0.00 
 297    7:50   0.27   48.4    37    2.4   277     4.6   787.6    0.00 
 297    8:00   0.30   51.5    34    2.6   110     6.8   787.6    0.00 
 297    8:10   0.33   53.0    33    3.2    42     7.1   787.5    0.00 
 297    8:20   0.36   55.3    27    3.7    88     8.5   787.4    0.00 
 297    8:30   0.39   56.8    24    2.3   338     6.9   787.3    0.00 
 297    8:40   0.42   57.5    24    2.9   112     5.9   787.3    0.00 
 297    8:50   0.45   58.5    24    3.2    91     7.7   787.3    0.00 
 297    9:00   0.48   57.5    28    3.8    76     6.9   787.3    0.00 
 297    9:10   0.51   58.0    25    5.1    76     8.4   787.2    0.00 
 297    9:20   0.53   59.1    24    5.0    72     9.3   787.2    0.00 
 297    9:30   0.55   59.1    24    4.8    64     9.7   787.3    0.00 
 297    9:40   0.57   60.6    24    5.1    74    10.4   787.2    0.00 
 297    9:50   0.59   61.2    22    7.6    89    12.0   787.3    0.00 
 297   10:00   0.61   61.7    22    7.8    76    13.7   787.2    0.00 
 297   10:10   0.63   62.4    22    7.7    70    16.0   787.0    0.00 
 297   10:20   0.65   62.2    22   10.8    79    17.8   787.0    0.00 

Return to SNARL Reserve graphs page.


Western Regional Climate Center,wrcc@dri.edu